createdAt,value
2018-03-29T00:00:15.377Z,0.00
2018-03-29T00:01:15.249Z,0.00
2018-03-29T00:02:15.121Z,0.00
2018-03-29T00:03:14.993Z,0.00
2018-03-29T00:04:14.864Z,0.00
2018-03-29T00:05:14.738Z,0.00
2018-03-29T00:06:14.605Z,0.00
2018-03-29T00:07:14.493Z,0.00
2018-03-29T00:08:14.348Z,0.00
2018-03-29T00:09:14.219Z,0.00
2018-03-29T00:10:14.091Z,0.00
2018-03-29T00:11:13.961Z,0.00
2018-03-29T00:12:13.835Z,0.00
2018-03-29T00:13:13.706Z,0.00
2018-03-29T00:14:13.578Z,0.00
2018-03-29T00:15:13.449Z,0.00
2018-03-29T00:16:13.320Z,0.00
2018-03-29T00:17:13.197Z,0.00
2018-03-29T00:18:13.060Z,0.00
2018-03-29T00:19:12.932Z,0.00
2018-03-29T00:20:12.807Z,0.00
2018-03-29T00:21:12.676Z,0.00
2018-03-29T00:22:12.547Z,0.00
2018-03-29T00:23:12.418Z,0.00
2018-03-29T00:24:12.291Z,0.00
2018-03-29T00:25:12.166Z,0.00
2018-03-29T00:26:12.034Z,0.00
2018-03-29T00:27:11.909Z,0.00
2018-03-29T00:28:11.771Z,0.00
2018-03-29T00:29:11.645Z,0.00
2018-03-29T00:30:11.516Z,0.00
2018-03-29T00:31:11.387Z,0.00
2018-03-29T00:32:11.262Z,0.00
2018-03-29T00:33:11.130Z,0.00
2018-03-29T00:34:11.001Z,0.00
2018-03-29T00:35:10.872Z,0.00
2018-03-29T00:36:10.742Z,0.00
2018-03-29T00:37:10.614Z,0.00
2018-03-29T00:38:10.486Z,0.00
2018-03-29T00:39:10.357Z,0.00
2018-03-29T00:40:10.226Z,0.00
2018-03-29T00:41:10.100Z,0.00
2018-03-29T00:42:09.970Z,0.00
2018-03-29T00:43:09.844Z,0.00
2018-03-29T00:44:09.713Z,0.00
2018-03-29T00:45:09.588Z,0.00
2018-03-29T00:46:09.457Z,0.00
2018-03-29T00:47:09.327Z,0.00
2018-03-29T00:48:09.198Z,0.00
2018-03-29T00:49:09.068Z,0.00
2018-03-29T00:50:08.940Z,0.00
2018-03-29T00:51:08.818Z,0.00
2018-03-29T00:52:08.684Z,0.00
2018-03-29T00:53:08.557Z,0.00
2018-03-29T00:54:08.425Z,0.00
2018-03-29T00:55:08.300Z,0.00
2018-03-29T00:56:08.169Z,0.00
2018-03-29T00:57:08.044Z,0.00
2018-03-29T00:58:07.910Z,0.00
2018-03-29T00:59:07.783Z,0.00
2018-03-29T01:00:07.653Z,0.00
2018-03-29T01:01:07.531Z,0.00
2018-03-29T01:02:07.396Z,0.00
2018-03-29T01:03:07.268Z,0.00
2018-03-29T01:04:07.138Z,0.00
2018-03-29T01:05:07.011Z,0.00
2018-03-29T01:06:06.878Z,0.00
2018-03-29T01:07:06.758Z,0.00
2018-03-29T01:08:06.625Z,0.00
2018-03-29T01:09:06.495Z,0.00
2018-03-29T01:10:06.376Z,0.00
2018-03-29T01:11:06.238Z,0.00
2018-03-29T01:12:06.109Z,0.00
2018-03-29T01:13:05.983Z,0.00
2018-03-29T01:14:05.857Z,0.00
2018-03-29T01:15:05.725Z,0.00
2018-03-29T01:16:05.598Z,0.00
2018-03-29T01:17:05.468Z,0.00
2018-03-29T01:18:05.341Z,0.00
2018-03-29T01:19:05.215Z,0.00
2018-03-29T01:20:05.086Z,0.00
2018-03-29T01:21:04.956Z,0.00
2018-03-29T01:22:04.827Z,0.00
2018-03-29T01:23:04.704Z,0.00
2018-03-29T01:24:04.573Z,0.00
2018-03-29T01:25:04.447Z,0.00
2018-03-29T01:26:04.320Z,0.00
2018-03-29T01:27:04.188Z,0.00
2018-03-29T01:28:04.058Z,0.00
2018-03-29T01:29:03.935Z,0.00
2018-03-29T01:30:03.799Z,0.00
2018-03-29T01:31:03.674Z,0.00
2018-03-29T01:32:03.545Z,0.00
2018-03-29T01:33:03.413Z,0.00
2018-03-29T01:34:03.282Z,0.00
2018-03-29T01:35:03.157Z,0.00
2018-03-29T01:36:03.026Z,0.00
2018-03-29T01:37:02.901Z,0.00
2018-03-29T01:38:02.770Z,0.00
2018-03-29T01:39:02.643Z,0.00
2018-03-29T01:40:02.511Z,0.00
2018-03-29T01:41:02.385Z,0.00
2018-03-29T01:42:02.255Z,0.00
2018-03-29T01:43:02.130Z,0.00
2018-03-29T01:44:01.999Z,0.00
2018-03-29T01:45:01.873Z,0.00
2018-03-29T01:46:01.758Z,0.00
2018-03-29T01:47:01.624Z,0.00
2018-03-29T01:48:01.483Z,0.00
2018-03-29T01:49:01.356Z,0.00
2018-03-29T01:50:01.228Z,0.00
2018-03-29T01:51:01.098Z,0.00
2018-03-29T01:52:00.967Z,0.00
2018-03-29T01:53:00.842Z,0.00
2018-03-29T01:54:00.710Z,0.00
2018-03-29T01:55:00.589Z,0.00
2018-03-29T01:56:00.453Z,0.00
2018-03-29T01:57:00.329Z,0.00
2018-03-29T01:58:00.194Z,0.00
2018-03-29T01:59:00.069Z,0.00
2018-03-29T01:59:59.941Z,0.00
2018-03-29T02:00:59.821Z,0.00
2018-03-29T02:01:59.682Z,0.00
2018-03-29T02:02:59.556Z,0.00
2018-03-29T02:03:59.424Z,0.00
2018-03-29T02:04:59.297Z,0.00
2018-03-29T02:05:59.168Z,0.00
2018-03-29T02:06:59.040Z,0.00
2018-03-29T02:07:58.913Z,0.00
2018-03-29T02:08:58.788Z,0.00
2018-03-29T02:09:58.655Z,0.00
2018-03-29T02:10:58.528Z,0.00
2018-03-29T02:11:58.396Z,0.00
2018-03-29T02:12:58.270Z,0.00
2018-03-29T02:13:58.139Z,0.00
2018-03-29T02:14:58.012Z,0.00
2018-03-29T02:15:57.890Z,0.00
2018-03-29T02:16:57.760Z,0.00
2018-03-29T02:17:57.625Z,0.00
2018-03-29T02:18:57.503Z,0.00
2018-03-29T02:19:57.371Z,0.00
2018-03-29T02:20:57.241Z,0.00
2018-03-29T02:21:57.113Z,0.00
2018-03-29T02:22:56.985Z,0.00
2018-03-29T02:23:56.875Z,0.00
2018-03-29T02:24:56.730Z,0.00
2018-03-29T02:25:56.600Z,0.00
2018-03-29T02:26:56.471Z,0.00
2018-03-29T02:27:56.346Z,0.00
2018-03-29T02:28:56.216Z,0.00
2018-03-29T02:29:56.085Z,0.00
2018-03-29T02:30:55.958Z,0.00
2018-03-29T02:31:55.836Z,0.00
2018-03-29T02:32:55.704Z,0.00
2018-03-29T02:33:55.573Z,0.00
2018-03-29T02:34:55.449Z,0.00
2018-03-29T02:35:55.316Z,0.00
2018-03-29T02:36:55.188Z,0.00
2018-03-29T02:37:55.058Z,0.00
2018-03-29T02:38:54.937Z,0.00
2018-03-29T02:39:54.804Z,0.00
2018-03-29T02:40:54.678Z,0.00
2018-03-29T02:41:54.550Z,0.00
2018-03-29T02:42:54.420Z,0.00
2018-03-29T02:43:54.290Z,0.00
2018-03-29T02:44:54.162Z,0.00
2018-03-29T02:45:54.034Z,0.00
2018-03-29T02:46:53.906Z,0.00
2018-03-29T02:47:53.783Z,0.00
2018-03-29T02:48:53.649Z,0.00
2018-03-29T02:49:53.520Z,0.00
2018-03-29T02:50:53.394Z,0.00
2018-03-29T02:51:53.264Z,0.00
2018-03-29T02:52:53.137Z,0.00
2018-03-29T02:53:53.007Z,0.00
2018-03-29T02:54:52.886Z,0.00
2018-03-29T02:55:52.755Z,0.00
2018-03-29T02:56:52.622Z,0.00
2018-03-29T02:57:52.495Z,0.00
2018-03-29T02:58:52.364Z,0.00
2018-03-29T02:59:52.237Z,0.00
2018-03-29T03:00:52.111Z,0.00
2018-03-29T03:01:51.981Z,0.00
2018-03-29T03:02:51.851Z,0.00
2018-03-29T03:03:51.728Z,0.00
2018-03-29T03:04:51.594Z,0.00
2018-03-29T03:05:51.466Z,0.00
2018-03-29T03:06:51.340Z,0.00
2018-03-29T03:07:51.212Z,0.00
2018-03-29T03:08:51.081Z,0.00
2018-03-29T03:09:50.952Z,0.00
2018-03-29T03:10:50.822Z,0.00
2018-03-29T03:11:50.697Z,0.00
2018-03-29T03:12:50.570Z,0.00
2018-03-29T03:13:50.437Z,0.00
2018-03-29T03:14:50.311Z,0.00
2018-03-29T03:15:50.180Z,0.00
2018-03-29T03:16:50.054Z,0.00
2018-03-29T03:17:49.927Z,0.00
2018-03-29T03:18:49.798Z,0.00
2018-03-29T03:19:49.667Z,0.00
2018-03-29T03:20:49.540Z,0.00
2018-03-29T03:21:49.419Z,0.00
2018-03-29T03:22:49.282Z,0.00
2018-03-29T03:23:49.152Z,0.00
2018-03-29T03:24:49.030Z,0.00
2018-03-29T03:25:48.895Z,0.00
2018-03-29T03:26:48.764Z,0.00
2018-03-29T03:27:48.666Z,0.00
2018-03-29T03:28:48.508Z,0.00
2018-03-29T03:29:48.385Z,0.00
2018-03-29T03:30:48.254Z,0.00
2018-03-29T03:31:48.124Z,0.00
2018-03-29T03:32:47.999Z,0.00
2018-03-29T03:33:47.870Z,0.00
2018-03-29T03:34:47.738Z,0.00
2018-03-29T03:35:47.609Z,0.00
2018-03-29T03:36:47.481Z,0.00
2018-03-29T03:37:47.352Z,0.00
2018-03-29T03:38:47.222Z,0.00
2018-03-29T03:39:47.094Z,0.00
2018-03-29T03:40:46.965Z,0.00
2018-03-29T03:41:46.834Z,0.00
2018-03-29T03:42:46.706Z,0.00
2018-03-29T03:43:46.584Z,0.00
2018-03-29T03:44:46.451Z,0.00
2018-03-29T03:45:46.324Z,0.00
2018-03-29T03:46:46.193Z,0.00
2018-03-29T03:47:46.065Z,0.00
2018-03-29T03:48:45.938Z,0.00
2018-03-29T03:49:45.861Z,0.00
2018-03-29T03:50:45.680Z,0.00
2018-03-29T03:51:45.550Z,0.00
2018-03-29T03:52:45.423Z,0.00
2018-03-29T03:53:45.294Z,0.00
2018-03-29T03:54:45.166Z,0.00
2018-03-29T03:55:45.035Z,0.00
2018-03-29T03:56:44.912Z,0.00
2018-03-29T03:57:44.782Z,0.00
2018-03-29T03:58:44.693Z,0.00
2018-03-29T03:59:44.526Z,0.00
2018-03-29T04:00:44.395Z,0.00
2018-03-29T04:01:44.269Z,0.00
2018-03-29T04:02:44.137Z,0.00
2018-03-29T04:03:45.316Z,0.00
2018-03-29T04:04:43.883Z,0.00
2018-03-29T04:05:43.754Z,0.00
2018-03-29T04:06:43.625Z,0.00
2018-03-29T04:07:43.495Z,0.00
2018-03-29T04:08:43.368Z,0.00
2018-03-29T04:09:43.243Z,0.00
2018-03-29T04:10:43.110Z,0.00
2018-03-29T04:11:42.981Z,0.00
2018-03-29T04:12:42.854Z,0.00
2018-03-29T04:13:42.728Z,0.00
2018-03-29T04:14:42.597Z,0.00
2018-03-29T04:15:42.471Z,0.00
2018-03-29T04:16:42.341Z,0.00
2018-03-29T04:17:42.210Z,0.00
2018-03-29T04:18:42.228Z,0.00
2018-03-29T04:19:41.953Z,0.00
2018-03-29T04:20:41.829Z,0.00
2018-03-29T04:21:41.698Z,0.00
2018-03-29T04:22:41.569Z,0.00
2018-03-29T04:23:41.440Z,0.00
2018-03-29T04:24:41.314Z,0.00
2018-03-29T04:25:41.187Z,0.00
2018-03-29T04:26:41.060Z,0.00
2018-03-29T04:27:40.925Z,0.00
2018-03-29T04:28:40.797Z,0.00
2018-03-29T04:29:40.669Z,0.00
2018-03-29T04:30:40.540Z,0.00
2018-03-29T04:31:40.411Z,0.00
2018-03-29T04:32:40.284Z,0.00
2018-03-29T04:33:40.155Z,0.00
2018-03-29T04:34:40.026Z,0.00
2018-03-29T04:35:39.897Z,0.00
2018-03-29T04:36:39.771Z,0.00
2018-03-29T04:37:39.641Z,0.00
2018-03-29T04:38:39.509Z,0.00
2018-03-29T04:39:39.383Z,0.00
2018-03-29T04:40:39.255Z,0.00
2018-03-29T04:41:39.126Z,0.00
2018-03-29T04:42:39.000Z,0.00
2018-03-29T04:43:38.866Z,0.00
2018-03-29T04:44:38.737Z,0.00
2018-03-29T04:45:38.609Z,0.00
2018-03-29T04:46:38.586Z,0.00
2018-03-29T04:47:38.352Z,0.00
2018-03-29T04:48:38.226Z,0.00
2018-03-29T04:49:38.096Z,0.00
2018-03-29T04:50:37.970Z,0.00
2018-03-29T04:51:37.835Z,0.00
2018-03-29T04:52:37.708Z,0.00
2018-03-29T04:53:37.578Z,4.00
2018-03-29T04:54:37.447Z,4.00
2018-03-29T04:55:37.318Z,4.00
2018-03-29T04:56:37.192Z,4.00
2018-03-29T04:57:37.066Z,4.00
2018-03-29T04:58:36.937Z,8.00
2018-03-29T04:59:36.805Z,8.00
2018-03-29T05:00:36.672Z,8.00
2018-03-29T05:01:36.544Z,12.00
2018-03-29T05:02:36.416Z,12.00
2018-03-29T05:03:36.285Z,16.00
2018-03-29T05:04:36.157Z,16.00
2018-03-29T05:05:36.028Z,16.00
2018-03-29T05:06:35.898Z,20.00
2018-03-29T05:07:35.824Z,16.00
2018-03-29T05:08:35.638Z,20.00
2018-03-29T05:09:35.510Z,16.00
2018-03-29T05:10:35.381Z,16.00
2018-03-29T05:11:35.257Z,20.00
2018-03-29T05:12:35.121Z,24.00
2018-03-29T05:13:34.992Z,28.00
2018-03-29T05:14:34.860Z,20.00
2018-03-29T05:15:34.734Z,20.00
2018-03-29T05:16:34.613Z,16.00
2018-03-29T05:17:34.477Z,16.00
2018-03-29T05:18:34.346Z,12.00
2018-03-29T05:19:34.215Z,16.00
2018-03-29T05:20:34.090Z,20.00
2018-03-29T05:21:33.955Z,20.00
2018-03-29T05:22:33.828Z,20.00
2018-03-29T05:23:33.711Z,28.00
2018-03-29T05:24:33.569Z,32.00
2018-03-29T05:25:33.447Z,36.00
2018-03-29T05:26:33.311Z,40.00
2018-03-29T05:27:33.182Z,40.00
2018-03-29T05:28:33.052Z,48.00
2018-03-29T05:29:32.921Z,52.00
2018-03-29T05:30:32.791Z,48.00
2018-03-29T05:31:32.727Z,44.00
2018-03-29T05:32:32.656Z,44.00
2018-03-29T05:33:32.595Z,40.00
2018-03-29T05:34:32.428Z,44.00
2018-03-29T05:35:32.149Z,52.00
2018-03-29T05:36:32.018Z,56.00
2018-03-29T05:37:31.886Z,60.00
2018-03-29T05:38:31.756Z,72.00
2018-03-29T05:39:31.627Z,76.00
2018-03-29T05:40:31.502Z,80.00
2018-03-29T05:41:31.371Z,80.00
2018-03-29T05:42:31.238Z,84.00
2018-03-29T05:43:31.111Z,76.00
2018-03-29T05:44:30.981Z,68.00
2018-03-29T05:45:30.853Z,72.00
2018-03-29T05:46:30.718Z,76.00
2018-03-29T05:47:30.592Z,76.00
2018-03-29T05:48:30.459Z,68.00
2018-03-29T05:49:30.330Z,68.00
2018-03-29T05:50:30.201Z,68.00
2018-03-29T05:51:30.078Z,68.00
2018-03-29T05:52:29.944Z,68.00
2018-03-29T05:53:29.810Z,76.00
2018-03-29T05:54:29.679Z,80.00
2018-03-29T05:55:29.556Z,92.00
2018-03-29T05:56:29.422Z,92.00
2018-03-29T05:57:29.289Z,100.00
2018-03-29T05:58:29.162Z,100.00
2018-03-29T05:59:29.034Z,100.00
2018-03-29T06:00:28.904Z,100.00
2018-03-29T06:01:28.773Z,104.00
2018-03-29T06:02:28.646Z,112.00
2018-03-29T06:03:28.515Z,108.00
2018-03-29T06:04:28.385Z,112.00
2018-03-29T06:05:28.255Z,112.00
2018-03-29T06:06:28.126Z,120.00
2018-03-29T06:07:27.994Z,124.00
2018-03-29T06:08:27.870Z,124.00
2018-03-29T06:09:27.737Z,132.00
2018-03-29T06:10:27.605Z,136.00
2018-03-29T06:11:27.477Z,132.00
2018-03-29T06:12:27.349Z,136.00
2018-03-29T06:13:27.220Z,148.00
2018-03-29T06:14:27.089Z,156.00
2018-03-29T06:15:26.955Z,148.00
2018-03-29T06:16:26.830Z,152.00
2018-03-29T06:17:26.699Z,160.00
2018-03-29T06:18:26.569Z,168.00
2018-03-29T06:19:26.448Z,180.00
2018-03-29T06:20:26.309Z,200.00
2018-03-29T06:21:26.198Z,224.00
2018-03-29T06:22:26.081Z,232.00
2018-03-29T06:23:25.962Z,244.00
2018-03-29T06:24:25.850Z,260.00
2018-03-29T06:25:25.683Z,252.00
2018-03-29T06:26:25.581Z,260.00
2018-03-29T06:27:25.400Z,284.00
2018-03-29T06:28:25.273Z,312.00
2018-03-29T06:29:25.143Z,356.00
2018-03-29T06:30:25.011Z,364.00
2018-03-29T06:31:24.913Z,372.00
2018-03-29T06:32:24.800Z,372.00
2018-03-29T06:33:24.618Z,384.00
2018-03-29T06:34:24.488Z,400.00
2018-03-29T06:35:24.360Z,404.00
2018-03-29T06:36:24.232Z,428.00
2018-03-29T06:37:24.099Z,448.00
2018-03-29T06:38:23.969Z,488.00
2018-03-29T06:39:23.838Z,516.00
2018-03-29T06:40:23.709Z,532.00
2018-03-29T06:41:23.576Z,548.00
2018-03-29T06:42:23.449Z,564.00
2018-03-29T06:43:23.322Z,572.00
2018-03-29T06:44:23.215Z,568.00
2018-03-29T06:45:23.061Z,584.00
2018-03-29T06:46:23.026Z,596.00
2018-03-29T06:47:22.800Z,592.00
2018-03-29T06:48:22.715Z,560.00
2018-03-29T06:49:22.544Z,552.00
2018-03-29T06:50:22.410Z,544.00
2018-03-29T06:51:22.278Z,564.00
2018-03-29T06:52:22.148Z,608.00
2018-03-29T06:53:22.016Z,636.00
2018-03-29T06:54:21.885Z,636.00
2018-03-29T06:55:21.760Z,648.00
2018-03-29T06:56:21.631Z,684.00
2018-03-29T06:57:21.506Z,716.00
2018-03-29T06:58:21.403Z,732.00
2018-03-29T06:59:21.247Z,744.00
2018-03-29T07:00:21.105Z,796.00
2018-03-29T07:01:20.974Z,848.00
2018-03-29T07:02:20.845Z,912.00
2018-03-29T07:03:20.715Z,1008.00
2018-03-29T07:04:20.588Z,1052.00
2018-03-29T07:05:20.480Z,1056.00
2018-03-29T07:06:20.327Z,1024.00
2018-03-29T07:07:20.199Z,1016.00
2018-03-29T07:08:20.069Z,1036.00
2018-03-29T07:09:19.938Z,1076.00
2018-03-29T07:10:20.081Z,1096.00
2018-03-29T07:11:19.686Z,1104.00
2018-03-29T07:12:19.546Z,1112.00
2018-03-29T07:13:19.417Z,1100.00
2018-03-29T07:14:19.288Z,1104.00
2018-03-29T07:15:19.159Z,1092.00
2018-03-29T07:16:19.088Z,1076.00
2018-03-29T07:17:18.900Z,1056.00
2018-03-29T07:18:18.924Z,1036.00
2018-03-29T07:19:18.653Z,1052.00
2018-03-29T07:20:18.545Z,1080.00
2018-03-29T07:21:18.383Z,1116.00
2018-03-29T07:22:18.276Z,1168.00
2018-03-29T07:23:18.195Z,1244.00
2018-03-29T07:24:17.994Z,1336.00
2018-03-29T07:25:17.872Z,1396.00
2018-03-29T07:26:17.757Z,1436.00
2018-03-29T07:27:17.652Z,1420.00
2018-03-29T07:28:17.475Z,1440.00
2018-03-29T07:29:17.354Z,1496.00
2018-03-29T07:30:17.216Z,1572.00
2018-03-29T07:31:17.115Z,1648.00
2018-03-29T07:32:16.958Z,1652.00
2018-03-29T07:33:16.828Z,1564.00
2018-03-29T07:34:16.702Z,1424.00
2018-03-29T07:35:16.646Z,1280.00
2018-03-29T07:36:16.474Z,1208.00
2018-03-29T07:37:16.310Z,1216.00
2018-03-29T07:38:16.179Z,1288.00
2018-03-29T07:39:16.051Z,1396.00
2018-03-29T07:40:15.925Z,1508.00
2018-03-29T07:41:15.790Z,1680.00
2018-03-29T07:42:15.683Z,1852.00
2018-03-29T07:43:15.610Z,1992.00
2018-03-29T07:44:15.407Z,2164.00
2018-03-29T07:45:15.273Z,2296.00
2018-03-29T07:46:15.143Z,2392.00
2018-03-29T07:47:15.016Z,2408.00
2018-03-29T07:48:14.958Z,2388.00
2018-03-29T07:49:14.779Z,2520.00
2018-03-29T07:50:14.663Z,2640.00
2018-03-29T07:51:14.492Z,2532.00
2018-03-29T07:52:14.367Z,2388.00
2018-03-29T07:53:14.241Z,2340.00
2018-03-29T07:54:14.103Z,2320.00
2018-03-29T07:55:13.971Z,2288.00
2018-03-29T07:56:13.841Z,2200.00
2018-03-29T07:57:13.712Z,2048.00
2018-03-29T07:58:13.581Z,2008.00
2018-03-29T07:59:13.459Z,2020.00
2018-03-29T08:00:13.322Z,2124.00
2018-03-29T08:01:13.219Z,2416.00
2018-03-29T08:02:13.085Z,2920.00
2018-03-29T08:03:12.934Z,3232.00
2018-03-29T08:04:12.803Z,3468.00
2018-03-29T08:05:12.702Z,3708.00
2018-03-29T08:06:12.555Z,3512.00
2018-03-29T08:07:12.415Z,3108.00
2018-03-29T08:08:12.291Z,2968.00
2018-03-29T08:09:12.153Z,3092.00
2018-03-29T08:10:12.025Z,3148.00
2018-03-29T08:11:11.917Z,2936.00
2018-03-29T08:12:11.857Z,2336.00
2018-03-29T08:13:11.639Z,2044.00
2018-03-29T08:14:11.535Z,2008.00
2018-03-29T08:15:11.381Z,2204.00
2018-03-29T08:16:11.251Z,2852.00
2018-03-29T08:17:11.124Z,2944.00
2018-03-29T08:18:10.990Z,2764.00
2018-03-29T08:19:10.863Z,2808.00
2018-03-29T08:20:10.742Z,2812.00
2018-03-29T08:21:10.637Z,2848.00
2018-03-29T08:22:10.490Z,2720.00
2018-03-29T08:23:10.342Z,2636.00
2018-03-29T08:24:10.235Z,2484.00
2018-03-29T08:25:10.082Z,2236.00
2018-03-29T08:27:09.821Z,2024.00
2018-03-29T08:28:09.697Z,1956.00
2018-03-29T08:29:09.577Z,2020.00
2018-03-29T08:30:09.443Z,2196.00
2018-03-29T08:31:09.445Z,2544.00
2018-03-29T08:32:09.174Z,2664.00
2018-03-29T08:33:09.048Z,2676.00
2018-03-29T08:34:09.020Z,3256.00
2018-03-29T08:35:08.875Z,4024.00
2018-03-29T08:36:08.841Z,4292.00
2018-03-29T08:37:08.584Z,3792.00
2018-03-29T08:38:08.442Z,2896.00
2018-03-29T08:39:08.273Z,2884.00
2018-03-29T08:40:08.139Z,3168.00
2018-03-29T08:41:08.031Z,3772.00
2018-03-29T08:42:07.880Z,3956.00
2018-03-29T08:43:07.750Z,3852.00
2018-03-29T08:44:07.625Z,3680.00
2018-03-29T08:45:07.493Z,3760.00
2018-03-29T08:46:07.361Z,3840.00
2018-03-29T08:47:07.231Z,3772.00
2018-03-29T08:48:07.131Z,3948.00
2018-03-29T08:49:06.972Z,4448.00
2018-03-29T08:50:06.841Z,4780.00
2018-03-29T08:51:06.715Z,4764.00
2018-03-29T08:52:06.589Z,4596.00
2018-03-29T08:53:06.457Z,4608.00
2018-03-29T08:54:06.332Z,4756.00
2018-03-29T08:55:06.200Z,4532.00
2018-03-29T08:56:06.069Z,4624.00
2018-03-29T08:57:05.943Z,5372.00
2018-03-29T08:58:05.810Z,5856.00
2018-03-29T08:59:05.679Z,5208.00
2018-03-29T09:00:05.554Z,4892.00
2018-03-29T09:01:05.422Z,5624.00
2018-03-29T09:02:05.293Z,5528.00
2018-03-29T09:03:05.206Z,5192.00
2018-03-29T09:04:05.038Z,4868.00
2018-03-29T09:05:04.906Z,4828.00
2018-03-29T09:06:04.776Z,4748.00
2018-03-29T09:07:04.653Z,5296.00
2018-03-29T09:08:04.529Z,6240.00
2018-03-29T09:09:04.393Z,6476.00
2018-03-29T09:10:04.286Z,6292.00
2018-03-29T09:11:04.133Z,6548.00
2018-03-29T09:12:04.004Z,6332.00
2018-03-29T09:13:03.877Z,5760.00
2018-03-29T09:14:03.753Z,5224.00
2018-03-29T09:15:03.627Z,4944.00
2018-03-29T09:16:03.490Z,4868.00
2018-03-29T09:17:03.361Z,5128.00
2018-03-29T09:18:03.235Z,5056.00
2018-03-29T09:19:03.132Z,4556.00
2018-03-29T09:20:03.085Z,4488.00
2018-03-29T09:21:02.922Z,4876.00
2018-03-29T09:22:02.728Z,4900.00
2018-03-29T09:23:02.593Z,4136.00
2018-03-29T09:24:02.463Z,3672.00
2018-03-29T09:25:02.339Z,3768.00
2018-03-29T09:26:02.211Z,4048.00
2018-03-29T09:27:02.095Z,4416.00
2018-03-29T09:28:02.781Z,4340.00
2018-03-29T09:29:01.851Z,4312.00
2018-03-29T09:30:02.644Z,4184.00
2018-03-29T09:31:01.559Z,4000.00
2018-03-29T09:32:01.713Z,3848.00
2018-03-29T09:33:01.350Z,3760.00
2018-03-29T09:34:01.654Z,3544.00
2018-03-29T09:35:01.358Z,3452.00
2018-03-29T09:36:01.185Z,3432.00
2018-03-29T09:37:00.877Z,3692.00
2018-03-29T09:38:00.655Z,3972.00
2018-03-29T09:39:00.529Z,4252.00
2018-03-29T09:40:00.409Z,5064.00
2018-03-29T09:41:00.275Z,6692.00
2018-03-29T09:42:00.147Z,8200.00
2018-03-29T09:43:00.008Z,7776.00
2018-03-29T09:43:59.886Z,7084.00
2018-03-29T09:45:00.755Z,6028.00
2018-03-29T09:45:59.753Z,6860.00
2018-03-29T09:46:59.520Z,5552.00
2018-03-29T09:47:59.360Z,6336.00
2018-03-29T09:48:59.239Z,4684.00
2018-03-29T09:49:59.104Z,4380.00
2018-03-29T09:50:58.976Z,4344.00
2018-03-29T09:51:59.051Z,4248.00
2018-03-29T09:52:58.844Z,4572.00
2018-03-29T09:53:58.715Z,4224.00
2018-03-29T09:54:58.461Z,3316.00
2018-03-29T09:55:58.333Z,2828.00
2018-03-29T09:56:58.213Z,2772.00
2018-03-29T09:57:58.072Z,2504.00
2018-03-29T09:58:57.954Z,2244.00
2018-03-29T09:59:57.818Z,2060.00
2018-03-29T10:00:57.685Z,1828.00
2018-03-29T10:01:57.558Z,1880.00
2018-03-29T10:02:57.428Z,2036.00
2018-03-29T10:03:57.299Z,2388.00
2018-03-29T10:04:57.169Z,2880.00
2018-03-29T10:05:57.042Z,3524.00
2018-03-29T10:06:56.914Z,3624.00
2018-03-29T10:07:56.779Z,3608.00
2018-03-29T10:08:56.654Z,3544.00
2018-03-29T10:09:56.528Z,3792.00
2018-03-29T10:10:56.396Z,3504.00
2018-03-29T10:11:56.264Z,3596.00
2018-03-29T10:12:56.130Z,3640.00
2018-03-29T10:13:56.004Z,3708.00
2018-03-29T10:14:55.872Z,3760.00
2018-03-29T10:15:55.745Z,3424.00
2018-03-29T10:16:55.615Z,3076.00
2018-03-29T10:17:55.487Z,3056.00
2018-03-29T10:18:55.366Z,3152.00
2018-03-29T10:19:55.222Z,3872.00
2018-03-29T10:20:55.097Z,3856.00
2018-03-29T10:21:55.145Z,3768.00
2018-03-29T10:22:54.841Z,4676.00
2018-03-29T10:23:54.707Z,4912.00
2018-03-29T10:24:54.578Z,4976.00
2018-03-29T10:25:54.446Z,5108.00
2018-03-29T10:26:54.316Z,5744.00
2018-03-29T10:27:54.190Z,6704.00
2018-03-29T10:28:54.064Z,6340.00
2018-03-29T10:29:53.932Z,6116.00
2018-03-29T10:30:53.799Z,6316.00
2018-03-29T10:31:54.015Z,6636.00
2018-03-29T10:32:53.540Z,8476.00
2018-03-29T10:33:53.414Z,9072.00
2018-03-29T10:34:53.281Z,6956.00
2018-03-29T10:35:53.165Z,6496.00
2018-03-29T10:36:53.021Z,6312.00
2018-03-29T10:37:52.890Z,6244.00
2018-03-29T10:38:52.761Z,7560.00
2018-03-29T10:39:52.641Z,8580.00
2018-03-29T10:40:52.503Z,6660.00
2018-03-29T10:41:52.373Z,5924.00
2018-03-29T10:42:52.243Z,6240.00
2018-03-29T10:43:52.112Z,6184.00
2018-03-29T10:44:51.980Z,6448.00
2018-03-29T10:45:51.853Z,8024.00
2018-03-29T10:46:51.723Z,11804.00
2018-03-29T10:47:51.594Z,11792.00
2018-03-29T10:48:51.470Z,15468.00
2018-03-29T10:49:51.342Z,6260.00
2018-03-29T10:50:51.205Z,8384.00
2018-03-29T10:51:51.078Z,10264.00
2018-03-29T10:52:50.947Z,6872.00
2018-03-29T10:53:50.840Z,9048.00
2018-03-29T10:54:50.691Z,8784.00
2018-03-29T10:55:50.562Z,6224.00
2018-03-29T10:56:50.435Z,8712.00
2018-03-29T10:57:50.304Z,8740.00
2018-03-29T10:58:50.183Z,6600.00
2018-03-29T10:59:50.050Z,6200.00
2018-03-29T11:00:49.920Z,6660.00
2018-03-29T11:01:49.791Z,7940.00
2018-03-29T11:02:49.662Z,7376.00
2018-03-29T11:03:49.535Z,6768.00
2018-03-29T11:04:49.404Z,7448.00
2018-03-29T11:05:49.277Z,4108.00
2018-03-29T11:06:49.149Z,4240.00
2018-03-29T11:07:49.020Z,4220.00
2018-03-29T11:08:48.889Z,5640.00
2018-03-29T11:09:48.762Z,7392.00
2018-03-29T11:10:48.636Z,6576.00
2018-03-29T11:11:48.507Z,6284.00
2018-03-29T11:12:48.376Z,6456.00
2018-03-29T11:13:48.249Z,6184.00
2018-03-29T11:14:48.123Z,5428.00
2018-03-29T11:15:47.993Z,4900.00
2018-03-29T11:16:47.865Z,4856.00
2018-03-29T11:17:47.737Z,3588.00
2018-03-29T11:18:47.611Z,2676.00
2018-03-29T11:19:47.480Z,2984.00
2018-03-29T11:20:47.350Z,3124.00
2018-03-29T11:21:47.221Z,2600.00
2018-03-29T11:22:47.136Z,2564.00
2018-03-29T11:23:46.979Z,2540.00
2018-03-29T11:24:46.835Z,2536.00
2018-03-29T11:25:46.709Z,2628.00
2018-03-29T11:26:46.581Z,2604.00
2018-03-29T11:27:46.454Z,2812.00
2018-03-29T11:28:46.323Z,2984.00
2018-03-29T11:29:46.192Z,3384.00
2018-03-29T11:30:46.064Z,4084.00
2018-03-29T11:31:45.935Z,4664.00
2018-03-29T11:32:45.807Z,4724.00
2018-03-29T11:33:45.684Z,4108.00
2018-03-29T11:34:45.549Z,4172.00
2018-03-29T11:35:45.421Z,4576.00
2018-03-29T11:36:45.295Z,4920.00
2018-03-29T11:37:45.165Z,5116.00
2018-03-29T11:38:45.086Z,4628.00
2018-03-29T11:39:44.906Z,4156.00
2018-03-29T11:40:44.776Z,3852.00
2018-03-29T11:41:44.646Z,4352.00
2018-03-29T11:42:44.520Z,5196.00
2018-03-29T11:43:44.389Z,5080.00
2018-03-29T11:44:44.261Z,5272.00
2018-03-29T11:45:44.133Z,5112.00
2018-03-29T11:46:44.003Z,5048.00
2018-03-29T11:47:43.875Z,5176.00
2018-03-29T11:48:43.742Z,5100.00
2018-03-29T11:49:43.614Z,4996.00
2018-03-29T11:50:43.488Z,5388.00
2018-03-29T11:51:43.359Z,5520.00
2018-03-29T11:52:43.227Z,5524.00
2018-03-29T11:53:43.101Z,5368.00
2018-03-29T11:54:42.969Z,4428.00
2018-03-29T11:55:42.841Z,4112.00
2018-03-29T11:56:42.712Z,4320.00
2018-03-29T11:57:42.584Z,4964.00
2018-03-29T11:58:42.455Z,5004.00
2018-03-29T11:59:42.325Z,5076.00
2018-03-29T12:00:42.194Z,5356.00
2018-03-29T12:01:42.072Z,4944.00
2018-03-29T12:02:41.936Z,5288.00
2018-03-29T12:03:41.812Z,6632.00
2018-03-29T12:04:41.684Z,9336.00
2018-03-29T12:05:41.553Z,7500.00
2018-03-29T12:06:41.423Z,7208.00
2018-03-29T12:07:41.296Z,11808.00
2018-03-29T12:08:41.164Z,9276.00
2018-03-29T12:09:41.038Z,9348.00
2018-03-29T12:10:40.912Z,18272.00
2018-03-29T12:11:40.783Z,13504.00
2018-03-29T12:12:40.667Z,19584.00
2018-03-29T12:13:40.529Z,11844.00
2018-03-29T12:14:40.398Z,20992.00
2018-03-29T12:15:40.270Z,12176.00
2018-03-29T12:16:40.140Z,5624.00
2018-03-29T12:17:40.015Z,5364.00
2018-03-29T12:18:39.888Z,5656.00
2018-03-29T12:19:39.759Z,6476.00
2018-03-29T12:20:39.633Z,8372.00
2018-03-29T12:21:39.502Z,5508.00
2018-03-29T12:22:39.376Z,4684.00
2018-03-29T12:23:39.251Z,4936.00
2018-03-29T12:24:39.121Z,5648.00
2018-03-29T12:25:39.005Z,6172.00
2018-03-29T12:26:38.867Z,4536.00
2018-03-29T12:27:38.738Z,3112.00
2018-03-29T12:28:38.611Z,4372.00
2018-03-29T12:29:38.484Z,5444.00
2018-03-29T12:30:38.358Z,5032.00
2018-03-29T12:31:38.243Z,4396.00
2018-03-29T12:32:38.101Z,4836.00
2018-03-29T12:33:37.973Z,5744.00
2018-03-29T12:34:37.845Z,5276.00
2018-03-29T12:35:37.722Z,4192.00
2018-03-29T12:36:37.591Z,4164.00
2018-03-29T12:37:37.465Z,3980.00